Time;durP1;ratioP1;P1;durP2;ratioP2;P2;SDS_P1;SDS_P2;PMS_P1;PMS_P2;Temp;Humidity;BMP_temperature;BMP_pressure;BME280_temperature;BME280_humidity;BME280_pressure;Samples;Min_cycle;Max_cycle;Signal;HPM_P1;HPM_P2
2024/02/10 00:01:24;;;;;;;4.00;1.90;;;;;;;6.97;100.00;98507.09;5056460;28;20422;-70
2024/02/10 00:03:50;;;;;;;8.60;2.40;;;;;;;6.94;100.00;98510.44;5053303;28;20431;-70
2024/02/10 00:06:18;;;;;;;3.27;2.07;;;;;;;6.88;100.00;98506.38;5056766;28;20504;-70
2024/02/10 00:08:46;;;;;;;5.03;2.50;;;;;;;6.86;100.00;98500.50;5056487;28;20442;-70
2024/02/10 00:11:13;;;;;;;7.97;3.00;;;;;;;6.82;100.00;98501.19;5056209;28;20492;-70
2024/02/10 00:13:41;;;;;;;5.50;2.17;;;;;;;6.83;100.00;98502.75;5056608;28;20513;-70
2024/02/10 00:16:08;;;;;;;5.30;2.10;;;;;;;6.80;100.00;98508.00;5056527;28;20457;-70
2024/02/10 00:18:36;;;;;;;5.70;2.20;;;;;;;6.81;100.00;98506.88;5056765;28;20442;-70
2024/02/10 00:21:03;;;;;;;4.93;1.63;;;;;;;6.77;100.00;98505.94;5056433;28;20442;-70
2024/02/10 00:23:31;;;;;;;5.20;2.73;;;;;;;6.77;100.00;98509.47;5055491;28;20969;-70
2024/02/10 00:25:58;;;;;;;2.70;1.90;;;;;;;6.79;100.00;98507.22;5056217;28;20522;-70
2024/02/10 00:28:25;;;;;;;5.93;3.00;;;;;;;6.78;100.00;98511.03;5055966;28;20929;-70
2024/02/10 00:30:53;;;;;;;4.90;2.33;;;;;;;6.78;100.00;98505.66;5056200;28;20623;-70
2024/02/10 00:33:20;;;;;;;6.37;1.80;;;;;;;6.79;100.00;98512.59;5055739;28;20824;-70
2024/02/10 00:35:46;;;;;;;5.80;2.00;;;;;;;6.78;100.00;98510.25;5056025;28;20466;-70
2024/02/10 00:38:14;;;;;;;4.30;2.37;;;;;;;6.77;100.00;98508.66;5056148;28;20435;-70
2024/02/10 00:40:42;;;;;;;3.97;1.80;;;;;;;6.77;100.00;98506.75;5056089;28;20922;-70
2024/02/10 00:43:12;;;;;;;4.83;1.87;;;;;;;6.79;100.00;98499.13;5055142;28;21025;-70
2024/02/10 00:45:39;;;;;;;4.10;2.30;;;;;;;6.79;100.00;98499.13;5056031;28;20434;-70
2024/02/10 00:48:07;;;;;;;5.83;2.90;;;;;;;6.79;100.00;98501.03;5056557;28;20450;-70
2024/02/10 00:50:34;;;;;;;3.87;1.60;;;;;;;6.77;100.00;98498.69;5055626;28;20482;-70
2024/02/10 00:53:02;;;;;;;6.40;2.03;;;;;;;6.77;100.00;98504.06;5055672;28;20893;-70
2024/02/10 00:55:30;;;;;;;3.20;1.40;;;;;;;6.77;100.00;98504.06;5055795;28;20464;-70
2024/02/10 00:58:02;;;;;;;5.57;2.50;;;;;;;6.78;100.00;98500.25;5056130;28;20526;-70
2024/02/10 01:00:30;;;;;;;9.43;2.47;;;;;;;6.78;100.00;98504.84;5055262;28;20438;-70
2024/02/10 01:02:57;;;;;;;8.40;2.20;;;;;;;6.78;100.00;98492.19;5055577;28;20466;-70
2024/02/10 01:05:24;;;;;;;5.27;2.20;;;;;;;6.80;100.00;98497.22;5055648;28;20462;-70
2024/02/10 01:07:51;;;;;;;6.80;2.90;;;;;;;6.78;100.00;98502.94;5055546;28;20441;-70
2024/02/10 01:10:19;;;;;;;3.63;2.03;;;;;;;6.75;100.00;98498.22;5055071;28;21005;-70
2024/02/10 01:12:46;;;;;;;3.27;2.00;;;;;;;6.73;100.00;98507.72;5055023;28;20503;-69
2024/02/10 01:15:16;;;;;;;4.43;2.20;;;;;;;6.66;100.00;98500.19;5055555;28;20446;-71
2024/02/10 01:17:46;;;;;;;4.53;2.43;;;;;;;6.69;100.00;98506.81;5055562;28;20427;-71
2024/02/10 01:20:16;;;;;;;6.00;2.30;;;;;;;6.67;100.00;98504.44;5055399;28;20550;-71
2024/02/10 01:22:44;;;;;;;3.80;2.00;;;;;;;6.70;100.00;98503.00;5055130;28;20463;-70
2024/02/10 01:25:11;;;;;;;4.40;2.47;;;;;;;6.66;100.00;98496.69;5055504;28;20438;-70
2024/02/10 01:27:38;;;;;;;5.00;2.30;;;;;;;6.65;100.00;98504.00;5055850;28;20430;-70
2024/02/10 01:30:07;;;;;;;3.57;1.50;;;;;;;6.62;100.00;98496.56;5055162;28;20442;-71
2024/02/10 01:32:36;;;;;;;2.90;1.47;;;;;;;6.62;100.00;98501.94;5056178;28;20478;-70
2024/02/10 01:35:04;;;;;;;2.70;1.50;;;;;;;6.59;100.00;98497.19;5054760;28;21033;-71
2024/02/10 01:37:31;;;;;;;4.30;2.27;;;;;;;6.61;100.00;98507.66;5055265;28;20526;-70
2024/02/10 01:39:58;;;;;;;7.20;2.20;;;;;;;6.57;100.00;98507.50;5055349;28;20466;-70
2024/02/10 01:42:37;;;;;;;2.40;1.33;;;;;;;6.56;100.00;98498.66;5054758;28;20541;-70
2024/02/10 01:45:07;;;;;;;6.50;2.30;;;;;;;6.56;100.00;98504.03;5054610;28;20435;-70
2024/02/10 01:47:37;;;;;;;4.43;2.07;;;;;;;6.57;100.00;98505.59;5054649;28;20509;-70
2024/02/10 01:50:06;;;;;;;3.90;2.77;;;;;;;6.55;100.00;98512.41;5055100;28;20541;-70
2024/02/10 01:52:35;;;;;;;3.93;2.77;;;;;;;6.57;100.00;98504.81;5054588;28;20510;-70
2024/02/10 01:55:02;;;;;;;2.37;1.40;;;;;;;6.59;100.00;98505.28;5054394;28;20521;-70
2024/02/10 01:57:28;;;;;;;2.60;1.40;;;;;;;6.58;100.00;98503.69;5054614;28;20453;-70
2024/02/10 01:59:59;;;;;;;4.70;2.10;;;;;;;6.61;100.00;98503.06;5054336;28;20557;-71
2024/02/10 02:02:28;;;;;;;3.53;1.70;;;;;;;6.60;100.00;98503.38;5054438;28;20458;-70
2024/02/10 02:04:57;;;;;;;5.70;2.50;;;;;;;6.61;100.00;98497.69;5054226;28;20434;-70
2024/02/10 02:07:23;;;;;;;3.50;1.90;;;;;;;6.61;100.00;98495.00;5054215;28;20492;-70
2024/02/10 02:09:50;;;;;;;6.33;2.17;;;;;;;6.64;100.00;98499.72;5054216;28;20466;-70
2024/02/10 02:12:16;;;;;;;4.13;1.77;;;;;;;6.65;100.00;98495.91;5054492;28;20565;-70
2024/02/10 02:14:47;;;;;;;4.10;2.50;;;;;;;6.70;100.00;98501.09;5054088;28;20462;-70
2024/02/10 02:17:13;;;;;;;5.87;1.37;;;;;;;6.74;100.00;98504.72;5054917;28;20426;-71
2024/02/10 02:19:42;;;;;;;3.77;2.20;;;;;;;6.77;100.00;98503.25;5053871;28;20922;-71
2024/02/10 02:22:10;;;;;;;5.43;2.77;;;;;;;6.78;100.00;98502.16;5053333;28;20470;-70
2024/02/10 02:24:39;;;;;;;5.70;2.70;;;;;;;6.76;100.00;98499.78;5053753;28;20994;-70
2024/02/10 02:27:08;;;;;;;3.73;1.87;;;;;;;6.78;100.00;98497.56;5053863;28;20788;-71
2024/02/10 02:29:35;;;;;;;3.60;1.63;;;;;;;6.79;100.00;98492.97;5054704;28;20500;-71
2024/02/10 02:32:04;;;;;;;3.50;1.80;;;;;;;6.82;100.00;98501.19;5053848;28;20482;-71
2024/02/10 02:34:33;;;;;;;4.03;1.87;;;;;;;6.82;100.00;98498.50;5054325;28;20489;-70
2024/02/10 02:36:59;;;;;;;7.83;2.33;;;;;;;6.83;100.00;98497.38;5053392;28;20807;-70
2024/02/10 02:39:26;;;;;;;2.73;1.50;;;;;;;6.85;100.00;98496.25;5053635;28;20484;-71
2024/02/10 02:41:59;;;;;;;6.20;2.30;;;;;;;6.86;100.00;98495.91;5054064;28;20561;-71
2024/02/10 02:44:26;;;;;;;3.80;1.87;;;;;;;6.88;100.00;98498.28;5053819;28;20513;-71
2024/02/10 02:46:54;;;;;;;3.10;1.73;;;;;;;6.89;100.00;98494.47;5052747;28;20597;-71
2024/02/10 02:49:23;;;;;;;4.70;2.10;;;;;;;6.89;100.00;98497.19;5053402;28;21041;-71
2024/02/10 02:51:50;;;;;;;4.33;2.13;;;;;;;6.94;100.00;98499.66;5053243;28;20871;-71
2024/02/10 02:54:18;;;;;;;5.97;2.00;;;;;;;6.95;100.00;98498.53;5053691;28;20526;-71
2024/02/10 02:56:45;;;;;;;3.40;1.87;;;;;;;6.97;100.00;98497.13;5053452;28;20442;-71
2024/02/10 02:59:14;;;;;;;4.10;1.70;;;;;;;7.00;100.00;98501.06;5053006;28;20475;-71
2024/02/10 03:01:41;;;;;;;6.60;2.27;;;;;;;7.00;100.00;98487.59;5053559;28;20518;-71
2024/02/10 03:04:08;;;;;;;3.70;2.27;;;;;;;7.03;100.00;98495.78;5053508;28;20434;-71
2024/02/10 03:06:35;;;;;;;2.80;1.33;;;;;;;7.03;100.00;98487.72;5053646;28;20526;-72
2024/02/10 03:09:01;;;;;;;3.50;1.30;;;;;;;7.05;100.00;98495.47;5053137;28;20529;-71
2024/02/10 03:11:28;;;;;;;3.17;1.57;;;;;;;7.07;100.00;98483.25;5053656;28;20508;-72
2024/02/10 03:13:59;;;;;;;4.43;1.87;;;;;;;7.09;100.00;98488.31;5053936;28;20774;-71
2024/02/10 03:16:27;;;;;;;12.40;1.87;;;;;;;7.13;100.00;98493.81;5053527;28;20423;-71
2024/02/10 03:18:54;;;;;;;4.20;1.80;;;;;;;7.14;100.00;98481.94;5053089;28;20511;-71
2024/02/10 03:21:21;;;;;;;3.70;2.30;;;;;;;7.13;100.00;98483.84;5053192;28;20515;-71
2024/02/10 03:23:48;;;;;;;4.10;1.93;;;;;;;7.15;100.00;98480.81;5053497;28;20530;-71
2024/02/10 03:26:14;;;;;;;4.60;1.93;;;;;;;7.18;100.00;98480.97;5053372;28;20442;-71
2024/02/10 03:28:41;;;;;;;4.20;1.70;;;;;;;7.20;100.00;98483.31;5053362;28;20460;-71
2024/02/10 03:31:08;;;;;;;4.23;2.07;;;;;;;7.22;100.00;98483.78;5052411;28;20434;-71
2024/02/10 03:33:36;;;;;;;4.43;2.60;;;;;;;7.22;100.00;98486.47;5054406;28;21037;-71
2024/02/10 03:36:03;;;;;;;4.67;1.70;;;;;;;7.25;100.00;98483.09;5057293;28;20442;-71
2024/02/10 03:38:31;;;;;;;4.67;2.93;;;;;;;7.25;100.00;98477.72;5056847;28;20441;-71
2024/02/10 03:40:57;;;;;;;3.20;2.00;;;;;;;7.24;100.00;98476.16;5056956;28;20434;-71
2024/02/10 03:43:27;;;;;;;4.73;2.40;;;;;;;7.25;100.00;98478.50;5057452;28;20579;-69
2024/02/10 03:45:53;;;;;;;3.47;1.90;;;;;;;7.23;100.00;98478.06;5057208;28;20442;-69
2024/02/10 03:48:20;;;;;;;4.00;1.70;;;;;;;7.22;100.00;98489.94;5056689;28;20426;-70
2024/02/10 03:50:49;;;;;;;3.10;1.60;;;;;;;7.21;100.00;98482.97;5056820;28;20430;-71
2024/02/10 03:53:17;;;;;;;4.43;2.20;;;;;;;7.23;100.00;98488.81;5056879;28;20488;-70
2024/02/10 03:55:44;;;;;;;4.97;2.47;;;;;;;7.24;100.00;98489.59;5056951;28;20442;-70
2024/02/10 03:58:14;;;;;;;3.50;1.73;;;;;;;7.25;100.00;98481.19;5056993;28;20484;-70
2024/02/10 04:00:44;;;;;;;6.30;2.27;;;;;;;7.25;100.00;98486.56;5056866;28;20450;-70
2024/02/10 04:03:12;;;;;;;3.00;1.30;;;;;;;7.26;100.00;98482.78;5058079;28;20462;-70
2024/02/10 04:05:39;;;;;;;2.47;1.20;;;;;;;7.27;100.00;98480.88;5056729;28;20468;-70
2024/02/10 04:08:09;;;;;;;3.17;1.33;;;;;;;7.27;100.00;98480.88;5057170;28;20442;-70
2024/02/10 04:10:35;;;;;;;3.50;2.03;;;;;;;7.30;100.00;98483.72;5056922;28;20524;-70
2024/02/10 04:13:05;;;;;;;2.50;1.50;;;;;;;7.34;100.00;98489.19;5056589;28;20846;-70
2024/02/10 04:15:32;;;;;;;5.70;1.97;;;;;;;7.33;100.00;98477.63;5056356;28;20839;-71
2024/02/10 04:17:59;;;;;;;4.00;2.00;;;;;;;7.35;100.00;98477.31;5056492;28;20442;-71
2024/02/10 04:20:26;;;;;;;2.63;1.53;;;;;;;7.39;100.00;98472.81;5057070;28;20540;-71
2024/02/10 04:22:55;;;;;;;5.33;2.00;;;;;;;7.41;100.00;98480.59;5056506;28;20485;-71
2024/02/10 04:25:23;;;;;;;3.20;1.57;;;;;;;7.44;100.00;98471.84;5056391;28;20459;-71
2024/02/10 04:27:50;;;;;;;3.00;1.47;;;;;;;7.46;100.00;98475.78;5056925;28;20525;-71
2024/02/10 04:30:19;;;;;;;7.03;2.17;;;;;;;7.48;100.00;98467.34;5056486;28;20481;-71
2024/02/10 04:32:46;;;;;;;2.57;1.27;;;;;;;7.47;100.00;98471.97;5056099;28;20547;-71
2024/02/10 04:35:13;;;;;;;6.93;2.10;;;;;;;7.51;100.00;98464.78;5055960;28;20496;-72
2024/02/10 04:37:48;;;;;;;5.57;2.50;;;;;;;7.54;100.00;98461.44;5056410;28;20496;-71
2024/02/10 04:40:17;;;;;;;14.53;2.10;;;;;;;7.57;100.00;98474.25;5056354;28;20422;-71
2024/02/10 04:42:45;;;;;;;3.73;1.77;;;;;;;7.62;100.00;98472.47;5055539;28;20545;-71
2024/02/10 04:45:25;;;;;;;2.90;1.50;;;;;;;7.64;100.00;98465.59;5055127;28;20529;-71
2024/02/10 04:47:52;;;;;;;4.30;1.90;;;;;;;7.62;100.00;98462.47;5056683;28;20426;-71
2024/02/10 04:50:19;;;;;;;3.10;1.77;;;;;;;7.66;100.00;98463.38;5055949;28;20470;-71
2024/02/10 04:52:46;;;;;;;3.80;1.77;;;;;;;7.68;100.00;98463.03;5055401;28;20497;-71
2024/02/10 04:55:15;;;;;;;2.47;1.30;;;;;;;7.70;100.00;98463.47;5055723;28;20439;-71
2024/02/10 04:57:42;;;;;;;2.60;1.20;;;;;;;7.72;100.00;98467.44;5055794;28;20442;-71
2024/02/10 05:00:15;;;;;;;2.80;1.07;;;;;;;7.74;100.00;98459.78;5055400;28;20561;-71
2024/02/10 05:02:43;;;;;;;2.50;1.27;;;;;;;7.74;100.00;98459.78;5055532;28;20451;-71
2024/02/10 05:05:11;;;;;;;4.13;1.60;;;;;;;7.75;100.00;98458.69;5056020;28;20453;-71
2024/02/10 05:07:42;;;;;;;3.00;1.50;;;;;;;7.74;100.00;98459.78;5055653;28;20439;-71
2024/02/10 05:10:11;;;;;;;2.50;1.30;;;;;;;7.75;100.00;98464.06;5055926;28;20435;-71
2024/02/10 05:12:38;;;;;;;5.00;1.97;;;;;;;7.75;100.00;98463.28;5055484;28;20478;-71
2024/02/10 05:15:08;;;;;;;3.70;1.53;;;;;;;7.76;100.00;98467.56;5055395;28;21033;-71
2024/02/10 05:17:40;;;;;;;3.43;1.33;;;;;;;7.76;100.00;98465.63;5055488;28;20505;-71
2024/02/10 05:20:13;;;;;;;3.47;1.40;;;;;;;7.79;100.00;98461.47;5055418;28;20415;-71
2024/02/10 05:22:42;;;;;;;3.13;1.67;;;;;;;7.80;100.00;98461.16;5055258;28;20938;-71
2024/02/10 05:25:10;;;;;;;5.30;1.27;;;;;;;7.84;100.00;98461.28;5051610;28;20987;-71
2024/02/10 05:27:37;;;;;;;3.90;1.30;;;;;;;7.87;100.00;98459.81;5055151;28;20470;-71
2024/02/10 05:30:05;;;;;;;5.00;1.53;;;;;;;7.92;100.00;98464.97;5055066;28;20514;-71
2024/02/10 05:32:31;;;;;;;2.40;1.20;;;;;;;7.97;100.00;98462.88;5054691;28;20981;-71
2024/02/10 05:34:59;;;;;;;2.70;1.00;;;;;;;7.99;100.00;98462.53;5055302;28;20522;-71
2024/02/10 05:37:27;;;;;;;2.70;1.33;;;;;;;8.02;100.00;98464.56;5055398;28;20434;-71
2024/02/10 05:39:53;;;;;;;2.93;1.40;;;;;;;8.03;100.00;98460.72;5054603;28;20453;-72
2024/02/10 05:42:20;;;;;;;3.40;1.33;;;;;;;8.04;100.00;98467.69;5054480;28;20537;-71
2024/02/10 05:44:47;;;;;;;2.30;1.27;;;;;;;8.04;100.00;98457.69;5054493;28;20958;-71
2024/02/10 05:47:15;;;;;;;4.53;1.67;;;;;;;8.04;100.00;98456.91;5054911;28;20525;-71
2024/02/10 05:49:42;;;;;;;3.20;1.23;;;;;;;8.04;100.00;98462.28;5055185;28;20473;-71
2024/02/10 05:52:10;;;;;;;2.20;1.07;;;;;;;8.07;100.00;98467.03;5054485;28;20981;-71
2024/02/10 05:54:40;;;;;;;3.37;1.30;;;;;;;8.08;100.00;98461.28;5054362;28;20448;-71
2024/02/10 05:57:13;;;;;;;3.13;1.03;;;;;;;8.09;100.00;98462.84;5054642;28;20516;-71
2024/02/10 05:59:40;;;;;;;4.07;1.13;;;;;;;8.13;100.00;98465.66;5054693;28;20451;-71
2024/02/10 06:02:06;;;;;;;4.50;1.40;;;;;;;8.19;100.00;98469.72;5053985;28;20490;-71
2024/02/10 06:04:33;;;;;;;3.20;1.27;;;;;;;8.27;100.00;98470.72;5054464;28;20521;-71
2024/02/10 06:07:00;;;;;;;2.93;1.30;;;;;;;8.32;100.00;98478.56;5054498;28;20438;-71
2024/02/10 06:09:29;;;;;;;3.63;1.60;;;;;;;8.31;100.00;98477.78;5065919;22;20489;-64
2024/02/10 06:11:59;;;;;;;3.00;1.10;;;;;;;8.29;100.00;98477.38;5034393;28;20459;-64
2024/02/10 06:14:26;;;;;;;3.07;1.40;;;;;;;8.33;100.00;98480.97;5023745;28;20938;-64
2024/02/10 06:16:55;;;;;;;2.50;1.03;;;;;;;8.33;100.00;98480.97;5034614;28;20497;-64
2024/02/10 06:19:23;;;;;;;4.70;1.20;;;;;;;8.40;100.00;98485.03;5034908;28;20482;-63
2024/02/10 06:21:50;;;;;;;3.60;1.20;;;;;;;8.50;100.00;98487.25;5033264;28;20494;-64
2024/02/10 06:24:19;;;;;;;2.20;0.87;;;;;;;8.62;100.00;98491.88;5019510;28;20612;-63
2024/02/10 06:26:49;;;;;;;2.33;1.23;;;;;;;8.74;100.00;98489.94;5023876;28;20442;-63
2024/02/10 06:29:16;;;;;;;4.27;1.60;;;;;;;8.88;100.00;98496.88;5034307;28;20581;-63
2024/02/10 06:31:45;;;;;;;3.67;1.40;;;;;;;9.01;100.00;98503.81;5033641;28;20455;-64
2024/02/10 06:34:11;;;;;;;2.37;1.00;;;;;;;9.02;100.00;98510.78;5033082;28;20435;-64
2024/02/10 06:36:38;;;;;;;2.23;0.93;;;;;;;9.02;100.00;98516.19;5014285;28;20523;-64
2024/02/10 06:39:05;;;;;;;2.87;1.10;;;;;;;9.05;100.00;98515.53;5015051;28;21020;-64
2024/02/10 06:41:33;;;;;;;4.37;1.23;;;;;;;9.09;100.00;98522.59;5024772;28;20443;-64
2024/02/10 06:44:04;;;;;;;1.90;0.70;;;;;;;9.17;100.00;98526.28;5033881;28;20527;-64
2024/02/10 06:46:31;;;;;;;2.30;0.83;;;;;;;9.27;100.00;98528.50;5032464;28;20428;-64
2024/02/10 06:48:59;;;;;;;2.10;0.83;;;;;;;9.34;100.00;98527.91;5015708;28;21016;-64
2024/02/10 06:51:26;;;;;;;2.20;1.20;;;;;;;9.35;100.00;98529.50;5014021;28;20523;-64
2024/02/10 06:53:54;;;;;;;2.47;1.07;;;;;;;9.35;100.00;98530.28;5015393;28;21026;-64
2024/02/10 06:56:22;;;;;;;1.80;0.73;;;;;;;9.40;100.00;98533.88;5032240;28;20447;-64
2024/02/10 06:58:49;;;;;;;2.70;1.00;;;;;;;9.41;100.00;98528.13;5033621;28;20479;-66
2024/02/10 07:01:17;;;;;;;3.93;1.57;;;;;;;9.41;100.00;98535.44;5025235;28;20491;-65
2024/02/10 07:03:45;;;;;;;2.13;0.93;;;;;;;9.40;100.00;98536.56;5013772;28;20456;-65
2024/02/10 07:06:17;;;;;;;3.13;1.10;;;;;;;9.38;100.00;98536.91;5014583;28;20507;-65
2024/02/10 07:08:44;;;;;;;2.27;0.90;;;;;;;9.34;100.00;98536.81;5028690;28;20981;-65
2024/02/10 07:11:12;;;;;;;2.03;0.83;;;;;;;9.34;100.00;98541.41;5029565;28;20454;-64
2024/02/10 07:13:39;;;;;;;2.87;1.07;;;;;;;9.35;100.00;98543.78;5032725;28;20518;-64
2024/02/10 07:16:06;;;;;;;2.30;0.80;;;;;;;9.30;100.00;98544.03;5032220;28;20493;-64
2024/02/10 07:18:41;;;;;;;2.13;1.07;;;;;;;9.31;100.00;98550.22;5018447;28;20440;-64
2024/02/10 07:21:08;;;;;;;2.93;1.00;;;;;;;9.30;100.00;98548.66;5013932;28;20431;-64
2024/02/10 07:23:34;;;;;;;2.20;0.70;;;;;;;9.26;100.00;98547.78;5028994;28;20455;-64
2024/02/10 07:26:04;;;;;;;2.57;1.10;;;;;;;9.20;100.00;98554.53;5019823;28;21191;-64
2024/02/10 07:28:31;;;;;;;2.73;1.00;;;;;;;9.22;100.00;98547.66;5033740;28;20435;-64
2024/02/10 07:30:58;;;;;;;2.20;0.90;;;;;;;9.26;100.00;98553.94;5025228;28;20439;-65
2024/02/10 07:33:24;;;;;;;3.07;1.17;;;;;;;9.29;100.00;98565.97;5013630;28;20569;-64
2024/02/10 07:35:52;;;;;;;2.30;1.17;;;;;;;9.32;100.00;98566.09;5013307;28;20446;-64
2024/02/10 07:38:20;;;;;;;3.13;1.50;;;;;;;9.37;100.00;98566.97;5013653;28;20443;-64
2024/02/10 07:40:47;;;;;;;2.77;1.10;;;;;;;9.49;100.00;98569.63;5013579;28;20452;-64
2024/02/10 07:43:15;;;;;;;2.50;1.30;;;;;;;9.57;100.00;98568.72;5022610;28;20487;-65
2024/02/10 07:45:42;;;;;;;2.43;1.20;;;;;;;9.62;100.00;98579.28;5033593;28;20959;-64
2024/02/10 07:48:09;;;;;;;2.50;1.30;;;;;;;9.67;100.00;98583.66;5033254;28;20848;-64
2024/02/10 07:50:41;;;;;;;3.10;1.23;;;;;;;9.69;100.00;98584.88;5033121;28;20533;-64
2024/02/10 07:53:10;;;;;;;3.20;1.03;;;;;;;9.72;100.00;98595.00;5033295;28;20483;-64
2024/02/10 07:55:37;;;;;;;2.00;0.73;;;;;;;9.76;100.00;98590.47;5033228;28;20927;-64
2024/02/10 07:58:04;;;;;;;2.73;1.07;;;;;;;9.80;100.00;98585.97;5033057;28;20500;-64
2024/02/10 08:00:32;;;;;;;2.50;0.87;;;;;;;9.80;100.00;98588.66;5032700;28;20534;-64
2024/02/10 08:03:03;;;;;;;3.97;0.77;;;;;;;9.82;100.00;98589.09;5017874;28;20459;-63
2024/02/10 08:05:30;;;;;;;1.90;0.73;;;;;;;9.79;100.00;98592.50;5015729;28;20432;-65
2024/02/10 08:08:00;;;;;;;2.40;1.10;;;;;;;9.85;100.00;98593.81;5013310;28;20538;-65
2024/02/10 08:10:28;;;;;;;2.53;0.83;;;;;;;9.94;100.00;98592.88;5032323;28;20895;-65
2024/02/10 08:12:54;;;;;;;3.13;1.30;;;;;;;10.01;100.00;98593.88;5033065;28;20565;-65
2024/02/10 08:15:22;;;;;;;2.03;0.90;;;;;;;10.07;100.00;98588.97;5031522;28;20531;-64
2024/02/10 08:17:49;;;;;;;2.50;1.03;;;;;;;10.11;100.00;98598.75;5020641;28;20607;-64
2024/02/10 08:20:19;;;;;;;3.67;1.47;;;;;;;10.10;100.00;98596.41;5022888;28;20490;-64
2024/02/10 08:22:48;;;;;;;5.10;1.23;;;;;;;10.12;100.00;98610.38;5036859;28;20459;-64
2024/02/10 08:25:15;;;;;;;2.60;1.10;;;;;;;10.10;100.00;98608.00;5024571;28;20490;-64
2024/02/10 08:27:42;;;;;;;2.67;1.23;;;;;;;10.12;100.00;98615.78;5017057;28;20440;-64
2024/02/10 08:30:19;;;;;;;2.90;1.13;;;;;;;10.12;100.00;98610.38;5018164;28;20536;-64
2024/02/10 08:32:45;;;;;;;2.10;0.80;;;;;;;10.15;100.00;98612.38;5016124;28;20526;-64
2024/02/10 08:35:12;;;;;;;2.40;1.00;;;;;;;10.16;100.00;98613.16;5016218;28;20482;-64
2024/02/10 08:37:39;;;;;;;2.90;0.97;;;;;;;10.13;100.00;98611.94;5030734;28;20436;-64
2024/02/10 08:40:09;;;;;;;2.37;0.87;;;;;;;10.13;100.00;98611.94;5036507;28;20447;-64
2024/02/10 08:42:36;;;;;;;2.27;0.97;;;;;;;10.21;100.00;98611.00;5035923;28;20470;-64
2024/02/10 08:45:06;;;;;;;2.63;1.10;;;;;;;10.25;100.00;98619.22;5036178;28;20478;-64
2024/02/10 08:47:32;;;;;;;3.73;0.97;;;;;;;10.30;100.00;98624.38;5036342;28;20438;-64
2024/02/10 08:49:59;;;;;;;2.60;1.30;;;;;;;10.33;100.00;98621.78;5035782;28;20534;-64
2024/02/10 08:52:25;;;;;;;2.90;1.00;;;;;;;10.41;100.00;98625.47;5036432;28;20503;-64
2024/02/10 08:54:52;;;;;;;4.73;0.97;;;;;;;10.49;100.00;98618.28;5036087;28;21025;-64
2024/02/10 08:57:19;;;;;;;2.83;1.20;;;;;;;10.54;100.00;98615.34;5035978;28;20877;-64
2024/02/10 08:59:48;;;;;;;2.10;0.90;;;;;;;10.60;100.00;98619.34;5035879;28;20978;-64
2024/02/10 09:02:17;;;;;;;2.60;0.73;;;;;;;10.65;100.00;98621.78;5035702;28;20525;-64
2024/02/10 09:04:44;;;;;;;2.43;1.03;;;;;;;10.73;100.00;98617.34;5036359;28;20443;-64
2024/02/10 09:07:11;;;;;;;4.37;1.33;;;;;;;10.81;100.00;98619.09;5035738;28;20479;-64
2024/02/10 09:09:37;;;;;;;2.13;0.80;;;;;;;10.88;100.00;98621.16;5035592;28;20946;-64
2024/02/10 09:12:05;;;;;;;2.00;0.90;;;;;;;10.93;100.00;98623.59;5035970;28;20459;-64
2024/02/10 09:14:33;;;;;;;2.40;1.00;;;;;;;10.97;100.00;98627.19;5018357;28;20517;-64
2024/02/10 09:17:00;;;;;;;1.93;0.67;;;;;;;11.02;100.00;98626.91;5015821;28;20440;-64
2024/02/10 09:19:28;;;;;;;2.90;1.17;;;;;;;11.05;100.00;98628.91;5016020;28;20463;-64
2024/02/10 09:21:55;;;;;;;2.30;1.20;;;;;;;11.09;100.00;98635.22;5015298;28;20992;-64
2024/02/10 09:24:23;;;;;;;2.30;0.73;;;;;;;11.07;100.00;98632.09;5015987;28;20446;-64
2024/02/10 09:26:50;;;;;;;3.00;1.27;;;;;;;11.09;100.00;98632.50;5015316;28;20448;-65
2024/02/10 09:29:18;;;;;;;4.37;1.73;;;;;;;11.13;100.00;98635.31;5015561;28;20482;-65
2024/02/10 09:31:45;;;;;;;2.30;1.07;;;;;;;11.23;100.00;98643.66;5025316;28;20455;-64
2024/02/10 09:34:12;;;;;;;3.17;1.57;;;;;;;11.22;100.00;98644.81;5019131;28;20480;-64
2024/02/10 09:36:42;;;;;;;2.30;1.03;;;;;;;11.28;100.00;98656.94;5015659;28;20518;-64
2024/02/10 09:39:09;;;;;;;3.10;1.40;;;;;;;11.38;100.00;98658.34;5023749;28;20490;-64
2024/02/10 09:41:35;;;;;;;2.67;1.20;;;;;;;11.46;100.00;98659.25;5019120;28;20439;-64
2024/02/10 09:44:03;;;;;;;3.30;1.40;;;;;;;11.52;100.00;98663.28;5022998;28;20428;-64
2024/02/10 09:46:35;;;;;;;2.50;0.87;;;;;;;11.55;100.00;98665.25;5021552;28;20490;-64
2024/02/10 09:49:08;;;;;;;3.30;1.27;;;;;;;11.56;100.00;98658.72;5026114;28;20459;-64
2024/02/10 09:51:42;;;;;;;2.60;1.03;;;;;;;11.55;100.00;98668.78;5026754;28;20428;-64
2024/02/10 09:54:13;;;;;;;2.80;1.23;;;;;;;11.56;100.00;98670.34;5034861;28;20471;-64
2024/02/10 09:56:40;;;;;;;2.70;1.27;;;;;;;11.57;100.00;98666.50;5035496;28;20460;-64
2024/02/10 09:59:10;;;;;;;2.83;0.93;;;;;;;11.57;100.00;98669.19;5035131;28;20428;-64
2024/02/10 10:01:37;;;;;;;2.10;0.87;;;;;;;11.56;100.00;98672.28;5022073;28;20436;-64
2024/02/10 10:04:10;;;;;;;2.47;1.00;;;;;;;11.57;100.00;98666.50;5015185;28;20448;-64
2024/02/10 10:06:39;;;;;;;2.50;0.90;;;;;;;11.60;100.00;98670.44;5022423;28;20943;-64
2024/02/10 10:09:07;;;;;;;3.00;1.10;;;;;;;11.57;100.00;98666.50;5034599;28;20454;-64
2024/02/10 10:11:39;;;;;;;2.20;0.93;;;;;;;11.61;100.00;98672.00;5034903;28;20668;-64
2024/02/10 10:14:07;;;;;;;2.70;1.07;;;;;;;11.59;100.00;98666.91;5034389;28;20472;-64
2024/02/10 10:16:33;;;;;;;3.53;1.20;;;;;;;11.61;100.00;98669.28;5034082;28;20970;-64
2024/02/10 10:19:00;;;;;;;4.50;1.40;;;;;;;11.61;100.00;98672.78;5024659;28;20437;-64
2024/02/10 10:21:27;;;;;;;2.10;1.00;;;;;;;11.59;100.00;98669.63;5014587;28;20440;-64
2024/02/10 10:23:55;;;;;;;3.07;1.00;;;;;;;11.59;100.00;98679.69;5014257;28;20659;-64
2024/02/10 10:26:23;;;;;;;1.70;0.60;;;;;;;11.57;100.00;98673.84;5023163;28;20431;-64
2024/02/10 10:28:51;;;;;;;2.50;1.00;;;;;;;11.59;100.00;98680.47;5022266;28;20447;-64
2024/02/10 10:31:18;;;;;;;2.07;0.90;;;;;;;11.62;100.00;98676.28;5032319;28;20462;-64
2024/02/10 10:33:48;;;;;;;2.70;1.20;;;;;;;11.69;100.00;98668.28;5017048;28;20566;-64
2024/02/10 10:36:16;;;;;;;3.40;1.20;;;;;;;11.72;100.00;98670.28;5013495;28;20840;-64
2024/02/10 10:38:45;;;;;;;3.53;1.37;;;;;;;11.80;100.00;98665.78;5015384;28;20435;-64
2024/02/10 10:41:14;;;;;;;2.23;0.70;;;;;;;11.84;100.00;98670.19;5033715;28;20935;-64
2024/02/10 10:43:43;;;;;;;2.30;0.80;;;;;;;11.83;100.00;98668.63;5032915;28;20997;-64
2024/02/10 10:46:12;;;;;;;2.17;1.03;;;;;;;11.87;100.00;98668.69;5033901;28;20816;-64
2024/02/10 10:48:39;;;;;;;3.50;1.07;;;;;;;11.94;100.00;98670.75;5033489;28;20440;-64
2024/02/10 10:51:08;;;;;;;2.67;1.10;;;;;;;11.87;100.00;98665.97;5031938;28;20911;-64
2024/02/10 10:53:36;;;;;;;2.93;1.50;;;;;;;11.94;100.00;98666.09;5030367;28;20570;-64
2024/02/10 10:56:06;;;;;;;3.10;1.60;;;;;;;11.97;100.00;98665.41;5030044;28;20446;-64
2024/02/10 10:58:39;;;;;;;3.50;1.10;;;;;;;11.98;100.00;98660.75;5033368;28;20942;-64
2024/02/10 11:01:06;;;;;;;4.40;1.90;;;;;;;11.97;100.00;98670.03;5033299;28;20917;-64
2024/02/10 11:03:37;;;;;;;3.53;1.43;;;;;;;12.00;100.00;98656.56;5031669;28;20964;-64
2024/02/10 11:06:11;;;;;;;2.60;1.00;;;;;;;12.00;100.00;98672.06;5033887;28;20527;-64
2024/02/10 11:08:39;;;;;;;2.10;0.93;;;;;;;11.95;100.00;98661.47;5033504;28;20430;-64
2024/02/10 11:11:08;;;;;;;2.70;1.13;;;;;;;11.92;100.00;98665.69;5029428;28;20527;-64
2024/02/10 11:13:38;;;;;;;2.40;1.00;;;;;;;11.98;100.00;98668.91;5033459;28;20463;-64
2024/02/10 11:16:10;;;;;;;2.23;0.90;;;;;;;12.04;100.00;98668.28;5034068;28;20447;-64
2024/02/10 11:18:38;;;;;;;2.30;1.00;;;;;;;12.07;100.00;98669.47;5033284;28;20422;-64
2024/02/10 11:21:18;;;;;;;2.57;1.13;;;;;;;12.02;100.00;98659.69;5013680;28;20867;-64
2024/02/10 11:23:56;;;;;;;3.80;1.40;;;;;;;12.06;100.00;98657.03;5013643;28;20517;-64
2024/02/10 11:26:24;;;;;;;3.60;1.37;;;;;;;12.04;100.00;98659.31;5013981;28;20494;-64
2024/02/10 11:28:59;;;;;;;2.47;0.80;;;;;;;12.08;100.00;98652.03;5013644;28;20440;-64
2024/02/10 11:31:28;;;;;;;2.40;1.20;;;;;;;12.14;100.00;98656.03;5013859;28;20423;-64
2024/02/10 11:34:04;;;;;;;2.60;1.03;;;;;;;12.15;100.00;98652.19;5013910;28;20492;-64
2024/02/10 11:36:32;;;;;;;4.70;1.10;;;;;;;12.15;100.00;98654.91;5013953;28;20425;-64